^^
Grace C. Lehan Memorial Weather Station Historical Data
Daily Summary for December 15, 2021 Units:  Metric    English   Both
Daily Weekly Monthly Yearly
  High: Low: Average:
Temperature: 7.9 °C -1.8 °C 3.6 °C
Dew Point: 5.4 °C -6.7 °C -1.1 °C
Humidity: 94% 51% 73%
Wind Speed: 3.2km/h 0km/h 0.2km/h
Wind Gust: 8km/h - -
Wind- - WNW
Pressure: 1038.5 hPa 1023.9 hPa -
Precipitation: 3.05 mm    
 
 
Tabular Data for December 15, 2021
Time Temperature Dew Point Pressure Wind Wind Speed Wind Gust Humidity Rainfall Rate (Hourly) solar
00:04 2.3 °C -5.9 °C 1037.5 hPa Calm     54.5% 0 mm 0 W/m2
00:09 2.3 °C -5.8 °C 1037.5 hPa Calm     55.2% 0 mm 0 W/m2
00:14 2.2 °C -5.7 °C 1037.5 hPa Calm     55.8% 0 mm 0 W/m2
00:19 2.1 °C -5.8 °C 1037.5 hPa Calm     55.6% 0 mm 0 W/m2
00:24 2 °C -5.8 °C 1037.5 hPa Calm     56% 0 mm 0 W/m2
00:29 1.9 °C -5.9 °C 1037.1 hPa Calm   3.2 km/h 56.1% 0 mm 0 W/m2
00:34 1.9 °C -5.7 °C 1037.5 hPa Calm   3.2 km/h 57% 0 mm 0 W/m2
00:39 1.8 °C -6 °C 1037.5 hPa Calm     56% 0 mm 0 W/m2
00:44 1.8 °C -6.2 °C 1037.5 hPa Calm     55.5% 0 mm 0 W/m2
00:49 1.7 °C -6.3 °C 1037.5 hPa Calm     55.1% 0 mm 0 W/m2
00:54 1.7 °C -6.4 °C 1037.5 hPa Calm     54.9% 0 mm 0 W/m2
00:59 1.7 °C -6.7 °C 1037.1 hPa Calm     54% 0 mm 0 W/m2
01:04 1.6 °C -6.5 °C 1037.1 hPa Calm     54.8% 0 mm 0 W/m2
01:09 1.6 °C -6.2 °C 1037.1 hPa Calm     56.1% 0 mm 0 W/m2
01:14 1.6 °C -6.2 °C 1037.5 hPa Calm     56.2% 0 mm 0 W/m2
01:19 1.6 °C -6.1 °C 1037.5 hPa Calm     57% 0 mm 0 W/m2
01:24 1.6 °C -5.9 °C 1037.5 hPa Calm     57.5% 0 mm 0 W/m2
01:29 1.6 °C -5.7 °C 1037.5 hPa Calm     58.7% 0 mm 0 W/m2
01:34 1.5 °C -5.5 °C 1037.5 hPa Calm     59.5% 0 mm 0 W/m2
01:39 1.4 °C -5.4 °C 1037.5 hPa Calm     60% 0 mm 0 W/m2
01:44 1.4 °C -5.4 °C 1037.5 hPa Calm     60.2% 0 mm 0 W/m2
01:49 1.3 °C -5.4 °C 1037.5 hPa Calm     61% 0 mm 0 W/m2
01:54 1.3 °C -5.4 °C 1037.5 hPa Calm     61% 0 mm 0 W/m2
01:59 1.2 °C -5.5 °C 1037.5 hPa Calm     61% 0 mm 0 W/m2
02:04 1.2 °C -5.3 °C 1037.5 hPa Calm     62.1% 0 mm 0 W/m2
02:09 1.1 °C -5.1 °C 1037.8 hPa Calm     63.5% 0 mm 0 W/m2
02:14 1 °C -4.9 °C 1037.5 hPa NNW 0.2 km/h 3.2 km/h 64.4% 0 mm 0 W/m2
02:19 0.9 °C -4.9 °C 1037.5 hPa Calm   3.2 km/h 65% 0 mm 0 W/m2
02:24 0.8 °C -4.9 °C 1037.8 hPa Calm   3.2 km/h 65.2% 0 mm 0 W/m2
02:29 0.7 °C -4.8 °C 1037.8 hPa Calm   3.2 km/h 66.4% 0 mm 0 W/m2
02:34 0.7 °C -4.9 °C 1037.8 hPa Calm   3.2 km/h 66.3% 0 mm 0 W/m2
02:39 0.6 °C -4.8 °C 1037.8 hPa Calm     67% 0 mm 0 W/m2
02:44 0.5 °C -4.9 °C 1037.8 hPa Calm     67% 0 mm 0 W/m2
02:49 0.4 °C -4.9 °C 1037.8 hPa Calm     67.3% 0 mm 0 W/m2
02:54 0.3 °C -4.9 °C 1037.8 hPa Calm     68% 0 mm 0 W/m2
02:59 0.3 °C -4.8 °C 1037.8 hPa Calm     68.3% 0 mm 0 W/m2
03:04 0.2 °C -5 °C 1037.8 hPa Calm     68% 0 mm 0 W/m2
03:09 0.2 °C -5.1 °C 1037.8 hPa Calm     68% 0 mm 0 W/m2
03:14 0.1 °C -4.9 °C 1037.8 hPa Calm     68.8% 0 mm 0 W/m2
03:19 0.1 °C -4.9 °C 1037.8 hPa Calm     69% 0 mm 0 W/m2
03:24 0.1 °C -4.9 °C 1037.8 hPa Calm     69% 0 mm 0 W/m2
03:29 0 °C -5 °C 1038.1 hPa Calm     69% 0 mm 0 W/m2
03:34 -0.1 °C -5.1 °C 1038.1 hPa Calm     69% 0 mm 0 W/m2
03:39 -0.1 °C -5.2 °C 1038.1 hPa Calm     68.4% 0 mm 0 W/m2
03:44 -0.1 °C -5.3 °C 1038.1 hPa Calm     68% 0 mm 0 W/m2
03:49 -0.2 °C -5.1 °C 1038.1 hPa Calm     69.2% 0 mm 0 W/m2
03:54 -0.2 °C -4.9 °C 1038.1 hPa Calm     70% 0 mm 0 W/m2
03:59 -0.2 °C -5 °C 1038.1 hPa Calm     70% 0 mm 0 W/m2
04:00 -0.3 °C -5.1 °C 1037.8 hPa Calm     70% 0 mm 0 W/m2
04:09 -0.3 °C -5.2 °C 1038.1 hPa Calm     70% 0 mm 0 W/m2
04:14 -0.4 °C -5.2 °C 1038.1 hPa Calm     70% 0 mm 0 W/m2
04:18 -0.4 °C -5.2 °C 1038.1 hPa Calm     70% 0 mm 0 W/m2
04:24 -0.4 °C -5.2 °C 1038.1 hPa Calm     70% 0 mm 0 W/m2
04:29 -0.4 °C -5.2 °C 1037.8 hPa Calm     70% 0 mm 0 W/m2
04:34 -0.5 °C -5.3 °C 1038.1 hPa Calm     70% 0 mm 0 W/m2
04:39 -0.6 °C -5.3 °C 1037.8 hPa Calm     70% 0 mm 0 W/m2
04:44 -0.6 °C -5.2 °C 1038.1 hPa Calm     70.9% 0 mm 0 W/m2
04:49 -0.6 °C -5.2 °C 1038.1 hPa Calm     71% 0 mm 0 W/m2
04:54 -0.7 °C -5.2 °C 1037.8 hPa Calm     71.5% 0 mm 0 W/m2
04:59 -0.7 °C -5.1 °C 1038.1 hPa Calm     72% 0 mm 0 W/m2
05:04 -0.7 °C -5.1 °C 1037.8 hPa Calm     72.5% 0 mm 0 W/m2
05:09 -0.8 °C -5 °C 1037.8 hPa Calm     73% 0 mm 0 W/m2
05:14 -0.8 °C -5.1 °C 1037.8 hPa Calm     73% 0 mm 0 W/m2
05:19 -0.8 °C -5.1 °C 1037.8 hPa Calm     73% 0 mm 0 W/m2
05:24 -0.9 °C -5.1 °C 1037.8 hPa Calm     73% 0 mm 0 W/m2
05:29 -0.9 °C -5.2 °C 1037.8 hPa Calm     73% 0 mm 0 W/m2
05:34 -1 °C -5.1 °C 1038.1 hPa Calm     74% 0 mm 0 W/m2
05:39 -1.1 °C -5.1 °C 1038.1 hPa Calm     74% 0 mm 0 W/m2
05:44 -1.1 °C -5.2 °C 1038.1 hPa Calm     74% 0 mm 0 W/m2
05:49 -1.2 °C -5.1 °C 1038.1 hPa Calm     74.7% 0 mm 0 W/m2
05:54 -1.3 °C -5.2 °C 1037.8 hPa Calm     75% 0 mm 0 W/m2
05:59 -1.3 °C -5.2 °C 1037.8 hPa Calm     75% 0 mm 0 W/m2
06:04 -1.4 °C -5.1 °C 1037.8 hPa Calm     76% 0 mm 0 W/m2
06:09 -1.5 °C -5.1 °C 1037.8 hPa NNW 3.2 km/h 6.4 km/h 76.2% 0 mm 0 W/m2
06:14 -1.5 °C -5 °C 1037.8 hPa NNW 1.1 km/h 6.4 km/h 77% 0 mm 0 W/m2
06:19 -1.6 °C -5 °C 1037.8 hPa NNW 1.3 km/h 6.4 km/h 77.2% 0 mm 0 W/m2
06:24 -1.6 °C -4.9 °C 1037.8 hPa Calm   6.4 km/h 78% 0 mm 0 W/m2
06:29 -1.6 °C -4.9 °C 1037.5 hPa NNW 1.1 km/h 6.4 km/h 78% 0 mm 0 W/m2
06:34 -1.6 °C -4.9 °C 1038.1 hPa NNW 2.1 km/h 6.4 km/h 78.5% 0 mm 0 W/m2
06:39 -1.7 °C -4.8 °C 1038.1 hPa NNW 1 km/h 6.4 km/h 79% 0 mm 0 W/m2
06:44 -1.7 °C -4.9 °C 1038.1 hPa NNW 0.6 km/h 6.4 km/h 78.5% 0 mm 0 W/m2
06:49 -1.7 °C -5.1 °C 1038.1 hPa Calm   6.4 km/h 78% 0 mm 0 W/m2
06:54 -1.8 °C -5.1 °C 1038.1 hPa NNW 1.1 km/h 6.4 km/h 77.8% 0 mm 0 W/m2
06:59 -1.8 °C -5.1 °C 1038.1 hPa NNW 0.3 km/h 6.4 km/h 78% 0 mm 0 W/m2
07:04 -1.7 °C -5.2 °C 1038.1 hPa NNW 0.2 km/h 6.4 km/h 77.1% 0 mm 5 W/m2
07:09 -1.7 °C -5.2 °C 1038.1 hPa Calm   1.6 km/h 77% 0 mm 7 W/m2
07:14 -1.6 °C -5.1 °C 1038.1 hPa Calm   1.6 km/h 76.8% 0 mm 9 W/m2
07:19 -1.4 °C -5.2 °C 1038.1 hPa Calm   1.6 km/h 76% 0 mm 11 W/m2
07:24 -1.3 °C -5 °C 1038.1 hPa Calm   1.6 km/h 76% 0 mm 14 W/m2
07:29 -1.3 °C -5.1 °C 1038.1 hPa Calm   1.6 km/h 75.4% 0 mm 18 W/m2
07:34 -1.2 °C -5.1 °C 1038.1 hPa Calm   1.6 km/h 75% 0 mm 19 W/m2
07:39 -1.2 °C -5 °C 1038.1 hPa Calm     75% 0 mm 23 W/m2
07:44 -1.1 °C -4.9 °C 1038.1 hPa Calm     75% 0 mm 35 W/m2
07:49 -0.9 °C -4.8 °C 1038.5 hPa Calm     75% 0 mm 44 W/m2
07:54 -0.8 °C -4.7 °C 1038.1 hPa Calm     74.9% 0 mm 42 W/m2
07:59 -0.7 °C -4.7 °C 1038.1 hPa Calm     74% 0 mm 53 W/m2
08:00 -0.6 °C -4.6 °C 1038.1 hPa Calm     74% 0 mm 53 W/m2
08:09 -0.4 °C -4.7 °C 1038.5 hPa Calm     73.1% 0 mm 62 W/m2
08:14 -0.4 °C -4.5 °C 1038.1 hPa Calm     74% 0 mm 86 W/m2
08:19 -0.4 °C -4.5 °C 1038.1 hPa Calm     74% 0 mm 69 W/m2
08:24 -0.3 °C -4.3 °C 1038.1 hPa Calm     74.6% 0 mm 107 W/m2
08:29 -0.2 °C -4.1 °C 1038.1 hPa Calm     74.8% 0 mm 135 W/m2
08:34 0.1 °C -3.8 °C 1037.8 hPa Calm     74.8% 0 mm 118 W/m2
08:39 0.4 °C -3.7 °C 1037.8 hPa Calm     74% 0 mm 121 W/m2
08:44 0.6 °C -3.7 °C 1037.8 hPa Calm     73% 0 mm 132 W/m2
08:49 0.8 °C -3.7 °C 1037.8 hPa Calm     71.5% 0 mm 195 W/m2
08:54 1.1 °C -3.8 °C 1037.8 hPa Calm     70.2% 0 mm 162 W/m2
08:59 1.2 °C -3.8 °C 1038.1 hPa Calm     69.2% 0 mm 165 W/m2
09:04 1.4 °C -3.7 °C 1038.1 hPa Calm     68.5% 0 mm 104 W/m2
09:09 1.6 °C -3.7 °C 1038.1 hPa Calm     68% 0 mm 142 W/m2
09:14 1.7 °C -3.6 °C 1038.1 hPa Calm     68% 0 mm 156 W/m2
09:19 1.8 °C -3.5 °C 1038.1 hPa Calm     67.7% 0 mm 149 W/m2
09:24 2 °C -3.2 °C 1038.1 hPa Calm     68.7% 0 mm 130 W/m2
09:29 2.1 °C -3.4 °C 1038.1 hPa Calm     67% 0 mm 120 W/m2
09:34 2.1 °C -3.5 °C 1037.8 hPa NNW 0.3 km/h 3.2 km/h 66.6% 0 mm 113 W/m2
09:39 2.1 °C -3.3 °C 1037.8 hPa Calm   3.2 km/h 67.5% 0 mm 113 W/m2
09:44 2.1 °C -3.2 °C 1037.8 hPa Calm   3.2 km/h 68% 0 mm 120 W/m2
09:49 2.1 °C -3.2 °C 1037.8 hPa Calm   3.2 km/h 68.2% 0 mm 125 W/m2
09:54 2.1 °C -3.2 °C 1037.8 hPa Calm   3.2 km/h 68% 0 mm 141 W/m2
09:59 2.2 °C -2.9 °C 1037.8 hPa Calm   3.2 km/h 69% 0 mm 135 W/m2
10:04 2.3 °C -2.6 °C 1037.8 hPa Calm   3.2 km/h 70% 0 mm 165 W/m2
10:09 2.4 °C -2.8 °C 1037.8 hPa Calm     68.4% 0 mm 232 W/m2
10:14 2.6 °C -2.6 °C 1037.5 hPa Calm     68.8% 0 mm 232 W/m2
10:19 2.8 °C -2.7 °C 1037.5 hPa Calm     67.2% 0 mm 214 W/m2
10:24 2.9 °C -2.7 °C 1037.5 hPa Calm     66.1% 0 mm 255 W/m2
10:29 3.2 °C -2.3 °C 1037.5 hPa Calm     67% 0 mm 285 W/m2
10:34 3.4 °C -2.6 °C 1037.1 hPa Calm     64.8% 0 mm 276 W/m2
10:39 3.8 °C -2.5 °C 1037.1 hPa Calm     63.5% 0 mm 411 W/m2
10:44 4.2 °C -2.4 °C 1037.1 hPa Calm   1.6 km/h 62.3% 0 mm 408 W/m2
10:49 4.6 °C -2.8 °C 1037.5 hPa Calm   1.6 km/h 58.8% 0 mm 207 W/m2
10:54 4.8 °C -3.4 °C 1036.8 hPa Calm   1.6 km/h 55.1% 0 mm 107 W/m2
10:59 4.9 °C -3.4 °C 1036.8 hPa Calm   1.6 km/h 54.8% 0 mm 111 W/m2
11:04 4.9 °C -3.8 °C 1036.5 hPa Calm   1.6 km/h 53.2% 0 mm 214 W/m2
11:09 4.9 °C -3.6 °C 1036.5 hPa Calm     54.4% 0 mm 172 W/m2
11:14 4.8 °C -4.1 °C 1036.5 hPa Calm     52.4% 0 mm 107 W/m2
11:19 4.7 °C -4.3 °C 1036.5 hPa Calm     52% 0 mm 121 W/m2
11:24 4.7 °C -4.6 °C 1036.5 hPa Calm     51.1% 0 mm 130 W/m2
11:29 4.6 °C -4.6 °C 1036.5 hPa Calm     51.4% 0 mm 197 W/m2
11:34 4.6 °C -4.6 °C 1036.1 hPa NNW 0.2 km/h 3.2 km/h 51.3% 0 mm 204 W/m2
11:39 4.7 °C -4.6 °C 1036.1 hPa Calm   3.2 km/h 51% 0 mm 288 W/m2
11:44 4.7 °C -4.2 °C 1036.1 hPa Calm   3.2 km/h 52.5% 0 mm 199 W/m2
11:49 4.8 °C -3.8 °C 1036.1 hPa NNW 0.5 km/h 3.2 km/h 53.5% 0 mm 199 W/m2
11:54 4.9 °C -3.8 °C 1036.1 hPa NNW 0.2 km/h 3.2 km/h 53.3% 0 mm 165 W/m2
11:59 5.1 °C -3.4 °C 1036.1 hPa NNW 0.2 km/h 3.2 km/h 54.1% 0 mm 146 W/m2
12:09 5.2 °C -3.3 °C 1035.8 hPa Calm     54% 0 mm 197 W/m2
12:14 5.2 °C -3.4 °C 1035.4 hPa Calm     53.6% 0 mm 234 W/m2
12:19 5.3 °C -3.4 °C 1035.4 hPa Calm     53.5% 0 mm 246 W/m2
12:24 5.3 °C -3.2 °C 1035.4 hPa Calm     54% 0 mm 183 W/m2
12:29 5.3 °C -3.2 °C 1035.4 hPa Calm     54.3% 0 mm 185 W/m2
12:34 5.3 °C -3.1 °C 1035.1 hPa Calm     54.5% 0 mm 195 W/m2
12:39 5.4 °C -2.9 °C 1035.1 hPa Calm     55% 0 mm 199 W/m2
12:44 5.6 °C -2.7 °C 1035.1 hPa NNW 0.2 km/h 1.6 km/h 55.2% 0 mm 278 W/m2
12:49 5.7 °C -2.4 °C 1034.8 hPa Calm   1.6 km/h 55.8% 0 mm 265 W/m2
12:54 5.9 °C -2.3 °C 1034.8 hPa Calm   1.6 km/h 55.4% 0 mm 144 W/m2
12:59 6.1 °C -2.2 °C 1034.8 hPa NNW 0.3 km/h 4.8 km/h 55.2% 0 mm 118 W/m2
13:04 6.3 °C -1.8 °C 1034.8 hPa NNW 0.3 km/h 4.8 km/h 56% 0 mm 345 W/m2
13:09 6.5 °C -1.6 °C 1034.4 hPa NNW 0.3 km/h 4.8 km/h 56% 0 mm 248 W/m2
13:14 6.7 °C -1.4 °C 1034.4 hPa NNW 0.2 km/h 4.8 km/h 56% 0 mm 165 W/m2
13:19 6.8 °C -1.3 °C 1034.4 hPa NNW 0.5 km/h 4.8 km/h 56.2% 0 mm 149 W/m2
13:24 6.8 °C -1.1 °C 1034.4 hPa Calm   4.8 km/h 57.3% 0 mm 199 W/m2
13:29 6.8 °C -1.1 °C 1034.1 hPa NNW 0.5 km/h 4.8 km/h 57.2% 0 mm 199 W/m2
13:34 6.8 °C -0.8 °C 1033.7 hPa NNW 0.3 km/h 4.8 km/h 58% 0 mm 188 W/m2
13:39 6.8 °C -0.7 °C 1033.4 hPa Calm   3.2 km/h 58.6% 0 mm 158 W/m2
13:44 6.9 °C -0.6 °C 1033.4 hPa Calm   3.2 km/h 59% 0 mm 114 W/m2
13:49 6.9 °C -0.1 °C 1033.4 hPa Calm   3.2 km/h 60.7% 0 mm 116 W/m2
13:54 7 °C 0.2 °C 1033.1 hPa NNW 0.2 km/h 3.2 km/h 62% 0 mm 107 W/m2
13:59 7.1 °C 0.4 °C 1033.1 hPa NNW 0.5 km/h 3.2 km/h 62.9% 0 mm 116 W/m2
14:04 7.1 °C 0.9 °C 1033.1 hPa NW 0.2 km/h 3.2 km/h 64.8% 0 mm 114 W/m2
14:09 7.1 °C 1.2 °C 1032.7 hPa NW 1 km/h 4.8 km/h 66% 0 mm 132 W/m2
14:14 7.2 °C 1.3 °C 1032.7 hPa NW 1.1 km/h 6.4 km/h 66.1% 0 mm 128 W/m2
14:19 7.3 °C 1.6 °C 1032.7 hPa SSW 0.8 km/h 8 km/h 67% 0 mm 127 W/m2
14:24 7.4 °C 1.7 °C 1032.7 hPa Calm   8 km/h 67% 0 mm 102 W/m2
14:29 7.4 °C 1.7 °C 1033.1 hPa SE 0.8 km/h 8 km/h 67% 0 mm 93 W/m2
14:34 7.5 °C 1.8 °C 1033.1 hPa SSE 1.6 km/h 8 km/h 67% 0 mm 88 W/m2
14:39 7.6 °C 1.8 °C 1033.1 hPa SSE 1.3 km/h 8 km/h 67% 0 mm 84 W/m2
14:44 7.6 °C 1.8 °C 1033.1 hPa SSE 0.2 km/h 8 km/h 67% 0 mm 79 W/m2
14:49 7.6 °C 2.1 °C 1033.4 hPa SSE 0.2 km/h 8 km/h 68% 0 mm 74 W/m2
14:54 7.7 °C 2.1 °C 1033.1 hPa SSE 0.3 km/h 8 km/h 68% 0 mm 63 W/m2
14:59 7.7 °C 2.2 °C 1033.1 hPa Calm   8 km/h 68% 0 mm 56 W/m2
15:04 7.7 °C 2.2 °C 1033.1 hPa Calm   8 km/h 68% 0 mm 56 W/m2
15:09 7.8 °C 2.3 °C 1032.7 hPa Calm   1.6 km/h 68% 0 mm 49 W/m2
15:14 7.8 °C 2.3 °C 1032.7 hPa Calm   1.6 km/h 68% 0 mm 39 W/m2
15:19 7.8 °C 2.3 °C 1032.7 hPa Calm   1.6 km/h 68% 0 mm 30 W/m2
15:24 7.8 °C 2.3 °C 1032.7 hPa Calm   1.6 km/h 68% 0 mm 19 W/m2
15:29 7.8 °C 2.3 °C 1032.7 hPa Calm   1.6 km/h 68% 0 mm 14 W/m2
15:34 7.8 °C 2.4 °C 1032.7 hPa Calm   1.6 km/h 68.8% 0 mm 14 W/m2
15:39 7.8 °C 2.5 °C 1032.7 hPa Calm     69% 0 mm 12 W/m2
15:44 7.9 °C 2.6 °C 1032.7 hPa Calm   1.6 km/h 69% 0 mm 11 W/m2
15:49 7.9 °C 2.6 °C 1032.4 hPa SSE 0.5 km/h 1.6 km/h 69% 0 mm 11 W/m2
15:54 7.9 °C 2.6 °C 1032.4 hPa Calm   1.6 km/h 69% 0 mm 7 W/m2
15:59 7.9 °C 2.6 °C 1032.4 hPa Calm   1.6 km/h 69% 0 mm 7 W/m2
16:09 7.9 °C 2.6 °C 1032.7 hPa Calm     69% 0 mm 0 W/m2
16:14 7.9 °C 2.7 °C 1032.4 hPa Calm     69.6% 0 mm 0 W/m2
16:19 7.8 °C 2.7 °C 1032.4 hPa Calm     70% 0 mm 0 W/m2
16:24 7.8 °C 2.7 °C 1032.4 hPa Calm     70% 0 mm 0 W/m2
16:29 7.8 °C 2.6 °C 1032.1 hPa Calm     70% 0 mm 0 W/m2
16:34 7.7 °C 2.6 °C 1032.1 hPa Calm     70.1% 0 mm 0 W/m2
16:39 7.7 °C 2.7 °C 1031.7 hPa Calm     71% 0 mm 0 W/m2
16:44 7.6 °C 2.8 °C 1032.1 hPa Calm     71.5% 0 mm 0 W/m2
16:49 7.6 °C 3 °C 1032.1 hPa Calm     72.9% 0 mm 0 W/m2
16:54 7.5 °C 3 °C 1031.7 hPa Calm     73% 0 mm 0 W/m2
16:59 7.4 °C 3.1 °C 1031.7 hPa Calm     73.8% 0 mm 0 W/m2
17:04 7.4 °C 3.1 °C 1031.7 hPa Calm     74% 0 mm 0 W/m2
17:09 7.3 °C 3.1 °C 1031.7 hPa Calm     74.6% 0 mm 0 W/m2
17:14 7.3 °C 3.4 °C 1031.7 hPa Calm     76.2% 0 mm 0 W/m2
17:19 7.2 °C 3.6 °C 1031.4 hPa Calm     77.3% 0 mm 0 W/m2
17:24 7.1 °C 3.7 °C 1031.4 hPa Calm     78.5% 0.25 mm 0 W/m2
17:29 7 °C 3.7 °C 1031.4 hPa Calm     79.3% 0.25 mm 0 W/m2
17:34 6.9 °C 3.8 °C 1031.7 hPa Calm     80.6% 0.51 mm 0 W/m2
17:39 6.8 °C 3.8 °C 1031.4 hPa Calm     81.3% 0.51 mm 0 W/m2
17:44 6.6 °C 3.8 °C 1031.4 hPa Calm     82% 0.76 mm 0 W/m2
17:49 6.5 °C 3.8 °C 1031.7 hPa SSE 0.2 km/h 3.2 km/h 82.9% 1.02 mm 0 W/m2
17:54 6.4 °C 3.9 °C 1031.4 hPa Calm   3.2 km/h 83.9% 1.27 mm 0 W/m2
17:59 6.2 °C 3.9 °C 1031.4 hPa Calm   3.2 km/h 84.9% 1.27 mm 0 W/m2
18:04 6.1 °C 3.9 °C 1031.4 hPa Calm   3.2 km/h 85.6% 1.52 mm 0 W/m2
18:09 6 °C 3.9 °C 1031 hPa Calm     86.7% 1.52 mm 0 W/m2
18:14 5.9 °C 3.9 °C 1031 hPa Calm     87% 1.78 mm 0 W/m2
18:19 5.9 °C 4 °C 1031 hPa Calm     87.6% 2.03 mm 0 W/m2
18:24 5.8 °C 4 °C 1030.7 hPa Calm     88% 2.03 mm 0 W/m2
18:29 5.8 °C 3.9 °C 1030.7 hPa Calm     88.1% 2.29 mm 0 W/m2
18:34 5.7 °C 4.1 °C 1030.4 hPa Calm     89% 2.29 mm 0 W/m2
18:39 5.6 °C 3.9 °C 1030.4 hPa Calm     89% 2.03 mm 0 W/m2
18:44 5.6 °C 4 °C 1030.4 hPa Calm     89.5% 2.03 mm 0 W/m2
18:49 5.6 °C 4.1 °C 1030.4 hPa Calm     90% 2.03 mm 0 W/m2
18:54 5.6 °C 4.1 °C 1030.4 hPa Calm     90% 2.03 mm 0 W/m2
18:59 5.6 °C 4.1 °C 1030 hPa Calm     90% 2.29 mm 0 W/m2
19:04 5.6 °C 4.2 °C 1030 hPa Calm     90.5% 2.29 mm 0 W/m2
19:09 5.6 °C 4.3 °C 1030 hPa Calm     91% 1.27 mm 0 W/m2
19:14 5.6 °C 4.3 °C 1029.7 hPa Calm     91% 1.27 mm 0 W/m2
19:19 5.6 °C 4.2 °C 1029.7 hPa Calm     91% 1.27 mm 0 W/m2
19:24 5.6 °C 4.2 °C 1029.3 hPa Calm     91% 1.27 mm 0 W/m2
19:29 5.6 °C 4.3 °C 1029.3 hPa Calm     91% 1.27 mm 0 W/m2
19:34 5.6 °C 4.3 °C 1029.3 hPa Calm     91.2% 1.27 mm 0 W/m2
19:39 5.6 °C 4.4 °C 1029 hPa Calm     92% 0.51 mm 0 W/m2
19:44 5.6 °C 4.4 °C 1029 hPa Calm     92% 0.51 mm 0 W/m2
19:49 5.6 °C 4.3 °C 1028.7 hPa Calm     92% 0.51 mm 0 W/m2
19:54 5.6 °C 4.3 °C 1028.7 hPa Calm     92% 0.51 mm 0 W/m2
19:59 5.5 °C 4.3 °C 1028.3 hPa Calm     92% 0.51 mm 0 W/m2
20:00 5.6 °C 4.3 °C 1028.3 hPa Calm     92% 0.51 mm 0 W/m2
20:09 5.7 °C 4.7 °C 1028.3 hPa Calm     93% 0.25 mm 0 W/m2
20:14 5.8 °C 4.7 °C 1028.3 hPa Calm     93% 0.25 mm 0 W/m2
20:19 5.8 °C 4.8 °C 1028 hPa Calm     93% 0.25 mm 0 W/m2
20:24 5.9 °C 4.8 °C 1028 hPa Calm     93% 0.25 mm 0 W/m2
20:29 5.9 °C 4.9 °C 1027.7 hPa Calm     93% 0.25 mm 0 W/m2
20:34 5.9 °C 4.9 °C 1027.7 hPa Calm     93% 0.25 mm 0 W/m2
20:39 6 °C 4.9 °C 1027.7 hPa Calm     93% 0.25 mm 0 W/m2
20:44 6 °C 4.9 °C 1027.7 hPa Calm     93% 0.25 mm 0 W/m2
20:49 6 °C 4.9 °C 1027.3 hPa Calm     93% 0.25 mm 0 W/m2
20:54 6 °C 5 °C 1027.3 hPa Calm     93% 0.25 mm 0 W/m2
20:59 6.1 °C 5.1 °C 1027 hPa Calm     93.4% 0.25 mm 0 W/m2
21:04 6.2 °C 5.2 °C 1027 hPa Calm     93.6% 0.25 mm 0 W/m2
21:09 6.2 °C 5.3 °C 1027 hPa Calm     94% 0 mm 0 W/m2
21:14 6.3 °C 5.4 °C 1026.6 hPa Calm     94% 0 mm 0 W/m2
21:19 6.3 °C 5.4 °C 1026.6 hPa Calm     94% 0 mm 0 W/m2
21:24 6.3 °C 5.4 °C 1026.3 hPa Calm     94% 0 mm 0 W/m2
21:29 6.3 °C 5.4 °C 1026.3 hPa Calm     94% 0 mm 0 W/m2
21:34 6.3 °C 5.4 °C 1026.3 hPa Calm     94% 0 mm 0 W/m2
21:39 6.3 °C 5.4 °C 1026.3 hPa Calm     94% 0 mm 0 W/m2
21:44 6.3 °C 5.4 °C 1026 hPa Calm   3.2 km/h 94% 0 mm 0 W/m2
21:49 6.3 °C 5.4 °C 1026 hPa Calm   3.2 km/h 94% 0 mm 0 W/m2
21:54 6.3 °C 5.4 °C 1026 hPa Calm   3.2 km/h 94% 0 mm 0 W/m2
21:59 6.3 °C 5.4 °C 1026 hPa Calm   3.2 km/h 94% 0 mm 0 W/m2
22:04 6.3 °C 5.4 °C 1025.6 hPa Calm   3.2 km/h 94% 0 mm 0 W/m2
22:09 6.3 °C 5.4 °C 1025.3 hPa Calm     94% 0 mm 0 W/m2
22:14 6.2 °C 5.3 °C 1025.3 hPa Calm     94% 0 mm 0 W/m2
22:19 6.2 °C 5.3 °C 1024.9 hPa Calm     94% 0 mm 0 W/m2
22:24 6.2 °C 5.3 °C 1024.9 hPa Calm     94% 0 mm 0 W/m2
22:29 6.2 °C 5.3 °C 1024.6 hPa Calm     94% 0 mm 0 W/m2
22:34 6.2 °C 5.3 °C 1024.6 hPa Calm     94% 0 mm 0 W/m2
22:39 6.2 °C 5.3 °C 1024.6 hPa Calm     94% 0 mm 0 W/m2
22:44 6.3 °C 5.4 °C 1024.6 hPa Calm     94% 0 mm 0 W/m2
22:49 6.3 °C 5.4 °C 1024.3 hPa Calm     94% 0.25 mm 0 W/m2
22:54 6.3 °C 5.4 °C 1024.3 hPa Calm     94% 0.25 mm 0 W/m2
22:59 6.3 °C 5.4 °C 1024.3 hPa Calm     94% 0.25 mm 0 W/m2
23:08 6.3 °C 5.4 °C 1023.9 hPa Calm     94% 0.25 mm 0 W/m2
Hartford County Weather
Compliments of Weather Underground - 2 mb